Claremont, South Dakota
Current Conditions -  °F | °C
As of 4:53 PM on Friday 28 Nov 2014 (Local Time) from KABR Reporting Station
Clear Clear  
Wind Chill: 19°   Ceiling: Unl
Heat Index: 19°   Visibility: 10mi
Dew Point: 12°   Wind: 3mph
Humidity: 74%   Direction: 70°ENE
Pressure: 29.69"   Gusts: NA
Location:  45.67°N, 98.02°W
Report Text: KABR 282253Z AUTO 07003KT 10SM CLR M07/M11 A2969 RMK AO2 SLP076 T10721111
Loading
Personal Weather Stations






























Interactive Weather Map New forecast layout! Learn more

10-Day Weather Forecast

Advertisements
Track Severe Weather on mobile